Overview Statistics Trail Chart Weather Telemetry Raw packets
 

This is the latest recevied weather packets stored in our database for station/object W4UWO. If no packets are shown the sender has not sent any weather packets the latest 10 day(s).

<< 91 92 93 94 95 96 97 >>
Time Temp. Humidity Pressure Rain* Wind** Luminosity Snow
1787945405 32.22° C 40% 1018.9 hPa 0 mm - 825 W/m² -
1787945100 32.22° C 39% 1018.9 hPa 0 mm - 769 W/m² -
1787944796 32.78° C 38% 1019 hPa 0 mm - 228 W/m² -
1787944492 33.33° C 38% 1019.3 hPa 0 mm - 407 W/m² -
1787944188 33.33° C 38% 1019.3 hPa 0 mm - 878 W/m² -
1787943887 32.78° C 38% 1019.2 hPa 0 mm - 858 W/m² -
1787943583 32.22° C 39% 1019.1 hPa 0 mm - 816 W/m² -
1787943278 31.67° C 42% 1019.4 hPa 0 mm - 828 W/m² -
1787942978 30.56° C 41% 1019.2 hPa 0 mm - 815 W/m² -
1787942674 31.67° C 41% 1019.3 hPa 0 mm - 193 W/m² -
1787942373 32.78° C 40% 1019.3 hPa 0 mm - 278 W/m² -
1787942068 32.22° C 39% 1019.3 hPa 0 mm - 946 W/m² -
1787941764 32.78° C 36% 1019.2 hPa 0 mm - 891 W/m² -
1787941462 32.78° C 37% 1019.4 hPa 0 mm - 868 W/m² -
1787941162 31.67° C 40% 1019.3 hPa 0 mm - 861 W/m² -
1787940857 32.22° C 38% 1019.4 hPa 0 mm - 413 W/m² -
1787940556 32.22° C 39% 1019.3 hPa 0 mm - 318 W/m² -
1787940255 32.78° C 38% 1019.6 hPa 0 mm - 875 W/m² -
1787939950 32.22° C 41% 1019.7 hPa 0 mm - 864 W/m² -
1787939649 31.67° C 40% 1019.8 hPa 0 mm - 861 W/m² -
1787939343 31.67° C 42% 1019.8 hPa 0 mm - 873 W/m² -
1787939038 31.11° C 43% 1019.8 hPa 0 mm - 872 W/m² -
1787938736 30.56° C 45% 1019.6 hPa 0 mm - 867 W/m² -
1787938433 31.11° C 45% 1019.6 hPa 0 mm - 175 W/m² -
1787938129 31.67° C 43% 1019.9 hPa 0 mm - 894 W/m² -

* Rain latest hour (hover to see other rain measurements)
** Current wind speed in m/s (hover to see current wind gust speed)